<?xml version="1.0" encoding="UTF-8" standalone="no" ?>
<gpx xmlns="http://www.topografix.com/GPX/1/1" xmlns:xsi="http://www.w3.org/2001/XMLSchema-instance" xsi:schemaLocation="http://www.topografix.com/GPX/1/1 http://www.topografix.com/GPX/1/1/gpx.xsd" version="1.1" creator="VisuGPX - https://www.visugpx.com">
  <metadata>
    <name>StCrespinMoine_PierreEcuelleSerpillette_9-21km</name>
    <desc><![CDATA[gnerando idor:7269162_9400780_9395508]]></desc>
  </metadata>
  <trk>
    <name><![CDATA[StCrespin_Serpillette_9.1km-9395508]]></name>
    <extensions>
      <line xmlns="http://www.topografix.com/GPX/gpx_style/0/2">
        <color>FF0000</color>
        <width>4</width>
      </line>
    </extensions>
    <trkseg>
      <trkpt lat="47.0974" lon="-1.1863">
        <ele>57</ele>
        <time>2023-11-12T16:10:08Z</time>
      </trkpt>
      <trkpt lat="47.09742" lon="-1.18649">
        <ele>57</ele>
        <time>2023-11-12T16:10:25Z</time>
      </trkpt>
      <trkpt lat="47.09717" lon="-1.18651">
        <ele>54</ele>
        <time>2023-11-12T16:10:59Z</time>
      </trkpt>
      <trkpt lat="47.09699" lon="-1.18657">
        <ele>52</ele>
        <time>2023-11-12T16:11:24Z</time>
      </trkpt>
      <trkpt lat="47.09677" lon="-1.1866">
        <ele>50</ele>
        <time>2023-11-12T16:11:53Z</time>
      </trkpt>
      <trkpt lat="47.09656" lon="-1.1866">
        <ele>47</ele>
        <time>2023-11-12T16:12:21Z</time>
      </trkpt>
      <trkpt lat="47.09642" lon="-1.1866">
        <ele>44</ele>
        <time>2023-11-12T16:12:40Z</time>
      </trkpt>
      <trkpt lat="47.09635" lon="-1.18652">
        <ele>43</ele>
        <time>2023-11-12T16:12:52Z</time>
      </trkpt>
      <trkpt lat="47.09626" lon="-1.18635">
        <ele>41</ele>
        <time>2023-11-12T16:13:11Z</time>
      </trkpt>
      <trkpt lat="47.09628" lon="-1.18616">
        <ele>40</ele>
        <time>2023-11-12T16:13:29Z</time>
      </trkpt>
      <trkpt lat="47.09633" lon="-1.18593">
        <ele>40</ele>
        <time>2023-11-12T16:13:50Z</time>
      </trkpt>
      <trkpt lat="47.09633" lon="-1.18576">
        <ele>40</ele>
        <time>2023-11-12T16:14:06Z</time>
      </trkpt>
      <trkpt lat="47.09632" lon="-1.18553">
        <ele>39</ele>
        <time>2023-11-12T16:14:27Z</time>
      </trkpt>
      <trkpt lat="47.09627" lon="-1.18531">
        <ele>38</ele>
        <time>2023-11-12T16:14:48Z</time>
      </trkpt>
      <trkpt lat="47.09627" lon="-1.18515">
        <ele>38</ele>
        <time>2023-11-12T16:15:02Z</time>
      </trkpt>
      <trkpt lat="47.09625" lon="-1.185">
        <ele>37</ele>
        <time>2023-11-12T16:15:16Z</time>
      </trkpt>
      <trkpt lat="47.0962" lon="-1.18485">
        <ele>37</ele>
        <time>2023-11-12T16:15:32Z</time>
      </trkpt>
      <trkpt lat="47.09617" lon="-1.18474">
        <ele>36</ele>
        <time>2023-11-12T16:15:42Z</time>
      </trkpt>
      <trkpt lat="47.09621" lon="-1.18446">
        <ele>37</ele>
        <time>2023-11-12T16:16:08Z</time>
      </trkpt>
      <trkpt lat="47.09621" lon="-1.18432">
        <ele>38</ele>
        <time>2023-11-12T16:16:21Z</time>
      </trkpt>
      <trkpt lat="47.09616" lon="-1.18401">
        <ele>37</ele>
        <time>2023-11-12T16:16:50Z</time>
      </trkpt>
      <trkpt lat="47.09616" lon="-1.18381">
        <ele>37</ele>
        <time>2023-11-12T16:17:08Z</time>
      </trkpt>
      <trkpt lat="47.09608" lon="-1.18324">
        <ele>36</ele>
        <time>2023-11-12T16:18:01Z</time>
      </trkpt>
      <trkpt lat="47.09605" lon="-1.18307">
        <ele>36</ele>
        <time>2023-11-12T16:18:17Z</time>
      </trkpt>
      <trkpt lat="47.09603" lon="-1.18289">
        <ele>37</ele>
        <time>2023-11-12T16:18:34Z</time>
      </trkpt>
      <trkpt lat="47.09601" lon="-1.18264">
        <ele>37</ele>
        <time>2023-11-12T16:18:56Z</time>
      </trkpt>
      <trkpt lat="47.09603" lon="-1.18243">
        <ele>38</ele>
        <time>2023-11-12T16:19:16Z</time>
      </trkpt>
      <trkpt lat="47.09608" lon="-1.18218">
        <ele>38</ele>
        <time>2023-11-12T16:19:39Z</time>
      </trkpt>
      <trkpt lat="47.09615" lon="-1.18201">
        <ele>39</ele>
        <time>2023-11-12T16:19:57Z</time>
      </trkpt>
      <trkpt lat="47.09617" lon="-1.18184">
        <ele>39</ele>
        <time>2023-11-12T16:20:13Z</time>
      </trkpt>
      <trkpt lat="47.09618" lon="-1.18162">
        <ele>39</ele>
        <time>2023-11-12T16:20:33Z</time>
      </trkpt>
      <trkpt lat="47.09624" lon="-1.18091">
        <ele>35</ele>
        <time>2023-11-12T16:21:38Z</time>
      </trkpt>
      <trkpt lat="47.09625" lon="-1.18069">
        <ele>35</ele>
        <time>2023-11-12T16:21:58Z</time>
      </trkpt>
      <trkpt lat="47.09618" lon="-1.18057">
        <ele>34</ele>
        <time>2023-11-12T16:22:12Z</time>
      </trkpt>
      <trkpt lat="47.09609" lon="-1.18047">
        <ele>33</ele>
        <time>2023-11-12T16:22:28Z</time>
      </trkpt>
      <trkpt lat="47.09604" lon="-1.18037">
        <ele>33</ele>
        <time>2023-11-12T16:22:39Z</time>
      </trkpt>
      <trkpt lat="47.09601" lon="-1.18028">
        <ele>32</ele>
        <time>2023-11-12T16:22:48Z</time>
      </trkpt>
      <trkpt lat="47.09599" lon="-1.1802">
        <ele>32</ele>
        <time>2023-11-12T16:22:56Z</time>
      </trkpt>
      <trkpt lat="47.09593" lon="-1.17956">
        <ele>33</ele>
        <time>2023-11-12T16:23:54Z</time>
      </trkpt>
      <trkpt lat="47.09592" lon="-1.17947">
        <ele>33</ele>
        <time>2023-11-12T16:24:03Z</time>
      </trkpt>
      <trkpt lat="47.0959" lon="-1.17942">
        <ele>33</ele>
        <time>2023-11-12T16:24:08Z</time>
      </trkpt>
      <trkpt lat="47.09586" lon="-1.17938">
        <ele>33</ele>
        <time>2023-11-12T16:24:14Z</time>
      </trkpt>
      <trkpt lat="47.09583" lon="-1.17932">
        <ele>33</ele>
        <time>2023-11-12T16:24:21Z</time>
      </trkpt>
      <trkpt lat="47.09578" lon="-1.17915">
        <ele>34</ele>
        <time>2023-11-12T16:24:38Z</time>
      </trkpt>
      <trkpt lat="47.09576" lon="-1.17906">
        <ele>34</ele>
        <time>2023-11-12T16:24:47Z</time>
      </trkpt>
      <trkpt lat="47.0957" lon="-1.17888">
        <ele>35</ele>
        <time>2023-11-12T16:25:05Z</time>
      </trkpt>
      <trkpt lat="47.09565" lon="-1.17872">
        <ele>35</ele>
        <time>2023-11-12T16:25:21Z</time>
      </trkpt>
      <trkpt lat="47.09559" lon="-1.17858">
        <ele>35</ele>
        <time>2023-11-12T16:25:36Z</time>
      </trkpt>
      <trkpt lat="47.09554" lon="-1.17843">
        <ele>36</ele>
        <time>2023-11-12T16:25:51Z</time>
      </trkpt>
      <trkpt lat="47.09546" lon="-1.17823">
        <ele>36</ele>
        <time>2023-11-12T16:26:12Z</time>
      </trkpt>
      <trkpt lat="47.09541" lon="-1.17812">
        <ele>35</ele>
        <time>2023-11-12T16:26:24Z</time>
      </trkpt>
      <trkpt lat="47.09535" lon="-1.178">
        <ele>35</ele>
        <time>2023-11-12T16:26:38Z</time>
      </trkpt>
      <trkpt lat="47.09527" lon="-1.17787">
        <ele>35</ele>
        <time>2023-11-12T16:26:53Z</time>
      </trkpt>
      <trkpt lat="47.0952" lon="-1.17777">
        <ele>34</ele>
        <time>2023-11-12T16:27:06Z</time>
      </trkpt>
      <trkpt lat="47.09511" lon="-1.17768">
        <ele>33</ele>
        <time>2023-11-12T16:27:21Z</time>
      </trkpt>
      <trkpt lat="47.09499" lon="-1.1776">
        <ele>32</ele>
        <time>2023-11-12T16:27:39Z</time>
      </trkpt>
      <trkpt lat="47.09509" lon="-1.17752">
        <ele>33</ele>
        <time>2023-11-12T16:27:54Z</time>
      </trkpt>
      <trkpt lat="47.09523" lon="-1.17747">
        <ele>35</ele>
        <time>2023-11-12T16:28:13Z</time>
      </trkpt>
      <trkpt lat="47.09535" lon="-1.17741">
        <ele>36</ele>
        <time>2023-11-12T16:28:30Z</time>
      </trkpt>
      <trkpt lat="47.09546" lon="-1.17739">
        <ele>38</ele>
        <time>2023-11-12T16:28:45Z</time>
      </trkpt>
      <trkpt lat="47.09549" lon="-1.17733">
        <ele>38</ele>
        <time>2023-11-12T16:28:51Z</time>
      </trkpt>
      <trkpt lat="47.09547" lon="-1.17719">
        <ele>39</ele>
        <time>2023-11-12T16:29:04Z</time>
      </trkpt>
      <trkpt lat="47.09545" lon="-1.17707">
        <ele>39</ele>
        <time>2023-11-12T16:29:16Z</time>
      </trkpt>
      <trkpt lat="47.09522" lon="-1.17615">
        <ele>37</ele>
        <time>2023-11-12T16:30:45Z</time>
      </trkpt>
      <trkpt lat="47.09519" lon="-1.17599">
        <ele>37</ele>
        <time>2023-11-12T16:31:00Z</time>
      </trkpt>
      <trkpt lat="47.09517" lon="-1.17582">
        <ele>37</ele>
        <time>2023-11-12T16:31:16Z</time>
      </trkpt>
      <trkpt lat="47.09519" lon="-1.17567">
        <ele>37</ele>
        <time>2023-11-12T16:31:29Z</time>
      </trkpt>
      <trkpt lat="47.09521" lon="-1.17559">
        <ele>37</ele>
        <time>2023-11-12T16:31:37Z</time>
      </trkpt>
      <trkpt lat="47.09526" lon="-1.17556">
        <ele>38</ele>
        <time>2023-11-12T16:31:44Z</time>
      </trkpt>
      <trkpt lat="47.09531" lon="-1.17556">
        <ele>39</ele>
        <time>2023-11-12T16:31:51Z</time>
      </trkpt>
      <trkpt lat="47.09538" lon="-1.17556">
        <ele>39</ele>
        <time>2023-11-12T16:32:00Z</time>
      </trkpt>
      <trkpt lat="47.09546" lon="-1.17555">
        <ele>40</ele>
        <time>2023-11-12T16:32:11Z</time>
      </trkpt>
      <trkpt lat="47.09553" lon="-1.17553">
        <ele>41</ele>
        <time>2023-11-12T16:32:21Z</time>
      </trkpt>
      <trkpt lat="47.0956" lon="-1.1755">
        <ele>42</ele>
        <time>2023-11-12T16:32:30Z</time>
      </trkpt>
      <trkpt lat="47.09571" lon="-1.17545">
        <ele>43</ele>
        <time>2023-11-12T16:32:46Z</time>
      </trkpt>
      <trkpt lat="47.09596" lon="-1.17532">
        <ele>46</ele>
        <time>2023-11-12T16:33:21Z</time>
      </trkpt>
      <trkpt lat="47.09606" lon="-1.17526">
        <ele>47</ele>
        <time>2023-11-12T16:33:35Z</time>
      </trkpt>
      <trkpt lat="47.09628" lon="-1.17518">
        <ele>49</ele>
        <time>2023-11-12T16:34:06Z</time>
      </trkpt>
      <trkpt lat="47.09635" lon="-1.17515">
        <ele>50</ele>
        <time>2023-11-12T16:34:15Z</time>
      </trkpt>
      <trkpt lat="47.09647" lon="-1.17515">
        <ele>52</ele>
        <time>2023-11-12T16:34:31Z</time>
      </trkpt>
      <trkpt lat="47.09655" lon="-1.17515">
        <ele>53</ele>
        <time>2023-11-12T16:34:42Z</time>
      </trkpt>
      <trkpt lat="47.09664" lon="-1.17516">
        <ele>54</ele>
        <time>2023-11-12T16:34:54Z</time>
      </trkpt>
      <trkpt lat="47.09673" lon="-1.17515">
        <ele>54</ele>
        <time>2023-11-12T16:35:06Z</time>
      </trkpt>
      <trkpt lat="47.09679" lon="-1.17516">
        <ele>55</ele>
        <time>2023-11-12T16:35:14Z</time>
      </trkpt>
      <trkpt lat="47.09689" lon="-1.17515">
        <ele>55</ele>
        <time>2023-11-12T16:35:28Z</time>
      </trkpt>
      <trkpt lat="47.09708" lon="-1.17502">
        <ele>55</ele>
        <time>2023-11-12T16:35:56Z</time>
      </trkpt>
      <trkpt lat="47.09718" lon="-1.17494">
        <ele>55</ele>
        <time>2023-11-12T16:36:11Z</time>
      </trkpt>
      <trkpt lat="47.09729" lon="-1.17487">
        <ele>55</ele>
        <time>2023-11-12T16:36:27Z</time>
      </trkpt>
      <trkpt lat="47.09744" lon="-1.17478">
        <ele>55</ele>
        <time>2023-11-12T16:36:48Z</time>
      </trkpt>
      <trkpt lat="47.09755" lon="-1.17469">
        <ele>55</ele>
        <time>2023-11-12T16:37:05Z</time>
      </trkpt>
      <trkpt lat="47.09776" lon="-1.17454">
        <ele>55</ele>
        <time>2023-11-12T16:37:36Z</time>
      </trkpt>
      <trkpt lat="47.09787" lon="-1.17445">
        <ele>56</ele>
        <time>2023-11-12T16:37:53Z</time>
      </trkpt>
      <trkpt lat="47.09806" lon="-1.17432">
        <ele>56</ele>
        <time>2023-11-12T16:38:21Z</time>
      </trkpt>
      <trkpt lat="47.09823" lon="-1.17421">
        <ele>57</ele>
        <time>2023-11-12T16:38:46Z</time>
      </trkpt>
      <trkpt lat="47.09839" lon="-1.17409">
        <ele>57</ele>
        <time>2023-11-12T16:39:10Z</time>
      </trkpt>
      <trkpt lat="47.0986" lon="-1.17394">
        <ele>57</ele>
        <time>2023-11-12T16:39:41Z</time>
      </trkpt>
      <trkpt lat="47.09876" lon="-1.1738">
        <ele>58</ele>
        <time>2023-11-12T16:40:06Z</time>
      </trkpt>
      <trkpt lat="47.09897" lon="-1.17364">
        <ele>58</ele>
        <time>2023-11-12T16:40:38Z</time>
      </trkpt>
      <trkpt lat="47.09912" lon="-1.17353">
        <ele>58</ele>
        <time>2023-11-12T16:41:00Z</time>
      </trkpt>
      <trkpt lat="47.09926" lon="-1.1734">
        <ele>59</ele>
        <time>2023-11-12T16:41:22Z</time>
      </trkpt>
      <trkpt lat="47.09943" lon="-1.17327">
        <ele>59</ele>
        <time>2023-11-12T16:41:48Z</time>
      </trkpt>
      <trkpt lat="47.09962" lon="-1.17311">
        <ele>59</ele>
        <time>2023-11-12T16:42:17Z</time>
      </trkpt>
      <trkpt lat="47.09974" lon="-1.17302">
        <ele>59</ele>
        <time>2023-11-12T16:42:35Z</time>
      </trkpt>
      <trkpt lat="47.10028" lon="-1.17265">
        <ele>62</ele>
        <time>2023-11-12T16:43:54Z</time>
      </trkpt>
      <trkpt lat="47.10044" lon="-1.17254">
        <ele>63</ele>
        <time>2023-11-12T16:44:18Z</time>
      </trkpt>
      <trkpt lat="47.10054" lon="-1.17248">
        <ele>63</ele>
        <time>2023-11-12T16:44:32Z</time>
      </trkpt>
      <trkpt lat="47.10076" lon="-1.17237">
        <ele>65</ele>
        <time>2023-11-12T16:45:03Z</time>
      </trkpt>
      <trkpt lat="47.1009" lon="-1.17227">
        <ele>66</ele>
        <time>2023-11-12T16:45:24Z</time>
      </trkpt>
      <trkpt lat="47.10109" lon="-1.17214">
        <ele>67</ele>
        <time>2023-11-12T16:45:52Z</time>
      </trkpt>
      <trkpt lat="47.10117" lon="-1.17207">
        <ele>67</ele>
        <time>2023-11-12T16:46:04Z</time>
      </trkpt>
      <trkpt lat="47.10147" lon="-1.17173">
        <ele>68</ele>
        <time>2023-11-12T16:46:55Z</time>
      </trkpt>
      <trkpt lat="47.10154" lon="-1.17166">
        <ele>68</ele>
        <time>2023-11-12T16:47:06Z</time>
      </trkpt>
      <trkpt lat="47.1016" lon="-1.17163">
        <ele>69</ele>
        <time>2023-11-12T16:47:15Z</time>
      </trkpt>
      <trkpt lat="47.1019" lon="-1.17158">
        <ele>70</ele>
        <time>2023-11-12T16:47:55Z</time>
      </trkpt>
      <trkpt lat="47.10199" lon="-1.17156">
        <ele>70</ele>
        <time>2023-11-12T16:48:07Z</time>
      </trkpt>
      <trkpt lat="47.1022" lon="-1.17139">
        <ele>71</ele>
        <time>2023-11-12T16:48:39Z</time>
      </trkpt>
      <trkpt lat="47.10233" lon="-1.17128">
        <ele>71</ele>
        <time>2023-11-12T16:48:59Z</time>
      </trkpt>
      <trkpt lat="47.10261" lon="-1.17111">
        <ele>72</ele>
        <time>2023-11-12T16:49:40Z</time>
      </trkpt>
      <trkpt lat="47.10274" lon="-1.17102">
        <ele>73</ele>
        <time>2023-11-12T16:49:59Z</time>
      </trkpt>
      <trkpt lat="47.10306" lon="-1.17075">
        <ele>75</ele>
        <time>2023-11-12T16:50:48Z</time>
      </trkpt>
      <trkpt lat="47.10331" lon="-1.17053">
        <ele>76</ele>
        <time>2023-11-12T16:51:27Z</time>
      </trkpt>
      <trkpt lat="47.1034" lon="-1.17041">
        <ele>76</ele>
        <time>2023-11-12T16:51:43Z</time>
      </trkpt>
      <trkpt lat="47.10351" lon="-1.17026">
        <ele>76</ele>
        <time>2023-11-12T16:52:03Z</time>
      </trkpt>
      <trkpt lat="47.10354" lon="-1.17017">
        <ele>76</ele>
        <time>2023-11-12T16:52:12Z</time>
      </trkpt>
      <trkpt lat="47.10364" lon="-1.16994">
        <ele>76</ele>
        <time>2023-11-12T16:52:37Z</time>
      </trkpt>
      <trkpt lat="47.1037" lon="-1.16987">
        <ele>77</ele>
        <time>2023-11-12T16:52:47Z</time>
      </trkpt>
      <trkpt lat="47.10382" lon="-1.16983">
        <ele>77</ele>
        <time>2023-11-12T16:53:04Z</time>
      </trkpt>
      <trkpt lat="47.10393" lon="-1.16983">
        <ele>78</ele>
        <time>2023-11-12T16:53:18Z</time>
      </trkpt>
      <trkpt lat="47.10407" lon="-1.16979">
        <ele>78</ele>
        <time>2023-11-12T16:53:37Z</time>
      </trkpt>
      <trkpt lat="47.10419" lon="-1.16977">
        <ele>79</ele>
        <time>2023-11-12T16:53:54Z</time>
      </trkpt>
      <trkpt lat="47.10432" lon="-1.16976">
        <ele>79</ele>
        <time>2023-11-12T16:54:11Z</time>
      </trkpt>
      <trkpt lat="47.1044" lon="-1.16978">
        <ele>79</ele>
        <time>2023-11-12T16:54:22Z</time>
      </trkpt>
      <trkpt lat="47.10449" lon="-1.16983">
        <ele>79</ele>
        <time>2023-11-12T16:54:35Z</time>
      </trkpt>
      <trkpt lat="47.10461" lon="-1.16996">
        <ele>78</ele>
        <time>2023-11-12T16:54:55Z</time>
      </trkpt>
      <trkpt lat="47.10476" lon="-1.17021">
        <ele>78</ele>
        <time>2023-11-12T16:55:25Z</time>
      </trkpt>
      <trkpt lat="47.10491" lon="-1.17052">
        <ele>78</ele>
        <time>2023-11-12T16:55:59Z</time>
      </trkpt>
      <trkpt lat="47.10505" lon="-1.17087">
        <ele>77</ele>
        <time>2023-11-12T16:56:36Z</time>
      </trkpt>
      <trkpt lat="47.1052" lon="-1.1712">
        <ele>77</ele>
        <time>2023-11-12T16:57:12Z</time>
      </trkpt>
      <trkpt lat="47.10535" lon="-1.17134">
        <ele>77</ele>
        <time>2023-11-12T16:57:36Z</time>
      </trkpt>
      <trkpt lat="47.10563" lon="-1.17142">
        <ele>78</ele>
        <time>2023-11-12T16:58:14Z</time>
      </trkpt>
      <trkpt lat="47.10665" lon="-1.17138">
        <ele>82</ele>
        <time>2023-11-12T17:00:30Z</time>
      </trkpt>
      <trkpt lat="47.10725" lon="-1.17121">
        <ele>85</ele>
        <time>2023-11-12T17:01:52Z</time>
      </trkpt>
      <trkpt lat="47.1078" lon="-1.17101">
        <ele>87</ele>
        <time>2023-11-12T17:03:07Z</time>
      </trkpt>
      <trkpt lat="47.10822" lon="-1.17088">
        <ele>88</ele>
        <time>2023-11-12T17:04:05Z</time>
      </trkpt>
      <trkpt lat="47.10861" lon="-1.17076">
        <ele>89</ele>
        <time>2023-11-12T17:04:58Z</time>
      </trkpt>
      <trkpt lat="47.1088" lon="-1.17073">
        <ele>89</ele>
        <time>2023-11-12T17:05:23Z</time>
      </trkpt>
      <trkpt lat="47.10914" lon="-1.17077">
        <ele>90</ele>
        <time>2023-11-12T17:06:09Z</time>
      </trkpt>
      <trkpt lat="47.10953" lon="-1.17079">
        <ele>90</ele>
        <time>2023-11-12T17:07:01Z</time>
      </trkpt>
      <trkpt lat="47.10974" lon="-1.17075">
        <ele>89</ele>
        <time>2023-11-12T17:07:29Z</time>
      </trkpt>
      <trkpt lat="47.11005" lon="-1.17059">
        <ele>89</ele>
        <time>2023-11-12T17:08:13Z</time>
      </trkpt>
      <trkpt lat="47.11053" lon="-1.1703">
        <ele>89</ele>
        <time>2023-11-12T17:09:22Z</time>
      </trkpt>
      <trkpt lat="47.11064" lon="-1.17033">
        <ele>89</ele>
        <time>2023-11-12T17:09:37Z</time>
      </trkpt>
      <trkpt lat="47.11129" lon="-1.16999">
        <ele>90</ele>
        <time>2023-11-12T17:11:09Z</time>
      </trkpt>
      <trkpt lat="47.11143" lon="-1.16991">
        <ele>90</ele>
        <time>2023-11-12T17:11:29Z</time>
      </trkpt>
      <trkpt lat="47.11164" lon="-1.17027">
        <ele>90</ele>
        <time>2023-11-12T17:12:12Z</time>
      </trkpt>
      <trkpt lat="47.11179" lon="-1.1707">
        <ele>90</ele>
        <time>2023-11-12T17:12:56Z</time>
      </trkpt>
      <trkpt lat="47.11301" lon="-1.17333">
        <ele>89</ele>
        <time>2023-11-12T17:17:45Z</time>
      </trkpt>
      <trkpt lat="47.11358" lon="-1.17455">
        <ele>89</ele>
        <time>2023-11-12T17:20:00Z</time>
      </trkpt>
      <trkpt lat="47.11506" lon="-1.17641">
        <ele>90</ele>
        <time>2023-11-12T17:24:20Z</time>
      </trkpt>
      <trkpt lat="47.11681" lon="-1.17883">
        <ele>88</ele>
        <time>2023-11-12T17:29:40Z</time>
      </trkpt>
      <trkpt lat="47.117" lon="-1.17892">
        <ele>88</ele>
        <time>2023-11-12T17:30:07Z</time>
      </trkpt>
      <trkpt lat="47.11719" lon="-1.17893">
        <ele>88</ele>
        <time>2023-11-12T17:30:32Z</time>
      </trkpt>
      <trkpt lat="47.11777" lon="-1.17847">
        <ele>89</ele>
        <time>2023-11-12T17:32:00Z</time>
      </trkpt>
      <trkpt lat="47.11833" lon="-1.17807">
        <ele>88</ele>
        <time>2023-11-12T17:33:23Z</time>
      </trkpt>
      <trkpt lat="47.11886" lon="-1.17765">
        <ele>87</ele>
        <time>2023-11-12T17:34:44Z</time>
      </trkpt>
      <trkpt lat="47.11915" lon="-1.17761">
        <ele>87</ele>
        <time>2023-11-12T17:35:23Z</time>
      </trkpt>
      <trkpt lat="47.11931" lon="-1.17787">
        <ele>88</ele>
        <time>2023-11-12T17:35:54Z</time>
      </trkpt>
      <trkpt lat="47.1196" lon="-1.17871">
        <ele>88</ele>
        <time>2023-11-12T17:37:20Z</time>
      </trkpt>
      <trkpt lat="47.11977" lon="-1.17984">
        <ele>89</ele>
        <time>2023-11-12T17:39:05Z</time>
      </trkpt>
      <trkpt lat="47.11991" lon="-1.18106">
        <ele>91</ele>
        <time>2023-11-12T17:40:57Z</time>
      </trkpt>
      <trkpt lat="47.11995" lon="-1.18289">
        <ele>90</ele>
        <time>2023-11-12T17:43:44Z</time>
      </trkpt>
      <trkpt lat="47.12003" lon="-1.18328">
        <ele>90</ele>
        <time>2023-11-12T17:44:21Z</time>
      </trkpt>
      <trkpt lat="47.12021" lon="-1.18353">
        <ele>90</ele>
        <time>2023-11-12T17:44:54Z</time>
      </trkpt>
      <trkpt lat="47.12105" lon="-1.18388">
        <ele>88</ele>
        <time>2023-11-12T17:46:50Z</time>
      </trkpt>
      <trkpt lat="47.12094" lon="-1.1844">
        <ele>88</ele>
        <time>2023-11-12T17:47:40Z</time>
      </trkpt>
      <trkpt lat="47.12083" lon="-1.18504">
        <ele>88</ele>
        <time>2023-11-12T17:48:40Z</time>
      </trkpt>
      <trkpt lat="47.12078" lon="-1.18548">
        <ele>88</ele>
        <time>2023-11-12T17:49:20Z</time>
      </trkpt>
      <trkpt lat="47.12079" lon="-1.18627">
        <ele>88</ele>
        <time>2023-11-12T17:50:32Z</time>
      </trkpt>
      <trkpt lat="47.12072" lon="-1.18649">
        <ele>88</ele>
        <time>2023-11-12T17:50:54Z</time>
      </trkpt>
      <trkpt lat="47.12038" lon="-1.18634">
        <ele>88</ele>
        <time>2023-11-12T17:51:41Z</time>
      </trkpt>
      <trkpt lat="47.11988" lon="-1.18619">
        <ele>89</ele>
        <time>2023-11-12T17:52:49Z</time>
      </trkpt>
      <trkpt lat="47.11956" lon="-1.18611">
        <ele>89</ele>
        <time>2023-11-12T17:53:33Z</time>
      </trkpt>
      <trkpt lat="47.11923" lon="-1.18609">
        <ele>90</ele>
        <time>2023-11-12T17:54:17Z</time>
      </trkpt>
      <trkpt lat="47.11867" lon="-1.18603">
        <ele>90</ele>
        <time>2023-11-12T17:55:32Z</time>
      </trkpt>
      <trkpt lat="47.11826" lon="-1.18593">
        <ele>91</ele>
        <time>2023-11-12T17:56:27Z</time>
      </trkpt>
      <trkpt lat="47.11734" lon="-1.18579">
        <ele>88</ele>
        <time>2023-11-12T17:58:31Z</time>
      </trkpt>
      <trkpt lat="47.11658" lon="-1.18561">
        <ele>89</ele>
        <time>2023-11-12T18:00:13Z</time>
      </trkpt>
      <trkpt lat="47.11537" lon="-1.18521">
        <ele>86</ele>
        <time>2023-11-12T18:02:59Z</time>
      </trkpt>
      <trkpt lat="47.11505" lon="-1.18505">
        <ele>86</ele>
        <time>2023-11-12T18:03:44Z</time>
      </trkpt>
      <trkpt lat="47.11454" lon="-1.18526">
        <ele>85</ele>
        <time>2023-11-12T18:04:55Z</time>
      </trkpt>
      <trkpt lat="47.11416" lon="-1.18545">
        <ele>84</ele>
        <time>2023-11-12T18:05:48Z</time>
      </trkpt>
      <trkpt lat="47.11347" lon="-1.18582">
        <ele>81</ele>
        <time>2023-11-12T18:07:26Z</time>
      </trkpt>
      <trkpt lat="47.11331" lon="-1.18565">
        <ele>81</ele>
        <time>2023-11-12T18:07:53Z</time>
      </trkpt>
      <trkpt lat="47.11312" lon="-1.18526">
        <ele>81</ele>
        <time>2023-11-12T18:08:36Z</time>
      </trkpt>
      <trkpt lat="47.11282" lon="-1.1848">
        <ele>82</ele>
        <time>2023-11-12T18:09:34Z</time>
      </trkpt>
      <trkpt lat="47.1125" lon="-1.18426">
        <ele>83</ele>
        <time>2023-11-12T18:10:39Z</time>
      </trkpt>
      <trkpt lat="47.11201" lon="-1.18444">
        <ele>83</ele>
        <time>2023-11-12T18:11:46Z</time>
      </trkpt>
      <trkpt lat="47.11141" lon="-1.18461">
        <ele>84</ele>
        <time>2023-11-12T18:13:08Z</time>
      </trkpt>
      <trkpt lat="47.11092" lon="-1.18484">
        <ele>85</ele>
        <time>2023-11-12T18:14:17Z</time>
      </trkpt>
      <trkpt lat="47.11078" lon="-1.18505">
        <ele>85</ele>
        <time>2023-11-12T18:14:43Z</time>
      </trkpt>
      <trkpt lat="47.11055" lon="-1.18563">
        <ele>84</ele>
        <time>2023-11-12T18:15:44Z</time>
      </trkpt>
      <trkpt lat="47.11023" lon="-1.18615">
        <ele>84</ele>
        <time>2023-11-12T18:16:48Z</time>
      </trkpt>
      <trkpt lat="47.10957" lon="-1.18673">
        <ele>84</ele>
        <time>2023-11-12T18:18:31Z</time>
      </trkpt>
      <trkpt lat="47.10885" lon="-1.18726">
        <ele>84</ele>
        <time>2023-11-12T18:20:18Z</time>
      </trkpt>
      <trkpt lat="47.10832" lon="-1.18767">
        <ele>84</ele>
        <time>2023-11-12T18:21:38Z</time>
      </trkpt>
      <trkpt lat="47.1076" lon="-1.18828">
        <ele>83</ele>
        <time>2023-11-12T18:23:29Z</time>
      </trkpt>
      <trkpt lat="47.10694" lon="-1.18868">
        <ele>82</ele>
        <time>2023-11-12T18:25:04Z</time>
      </trkpt>
      <trkpt lat="47.10663" lon="-1.18888">
        <ele>83</ele>
        <time>2023-11-12T18:25:49Z</time>
      </trkpt>
      <trkpt lat="47.10665" lon="-1.18906">
        <ele>83</ele>
        <time>2023-11-12T18:26:06Z</time>
      </trkpt>
      <trkpt lat="47.10687" lon="-1.18941">
        <ele>83</ele>
        <time>2023-11-12T18:26:49Z</time>
      </trkpt>
      <trkpt lat="47.10653" lon="-1.18986">
        <ele>83</ele>
        <time>2023-11-12T18:27:50Z</time>
      </trkpt>
      <trkpt lat="47.10616" lon="-1.19031">
        <ele>83</ele>
        <time>2023-11-12T18:28:54Z</time>
      </trkpt>
      <trkpt lat="47.10573" lon="-1.19079">
        <ele>82</ele>
        <time>2023-11-12T18:30:06Z</time>
      </trkpt>
      <trkpt lat="47.10472" lon="-1.19209">
        <ele>77</ele>
        <time>2023-11-12T18:33:06Z</time>
      </trkpt>
      <trkpt lat="47.10448" lon="-1.19233">
        <ele>77</ele>
        <time>2023-11-12T18:33:44Z</time>
      </trkpt>
      <trkpt lat="47.10393" lon="-1.19287">
        <ele>75</ele>
        <time>2023-11-12T18:35:13Z</time>
      </trkpt>
      <trkpt lat="47.1042" lon="-1.19358">
        <ele>76</ele>
        <time>2023-11-12T18:36:26Z</time>
      </trkpt>
      <trkpt lat="47.10326" lon="-1.19468">
        <ele>73</ele>
        <time>2023-11-12T18:39:07Z</time>
      </trkpt>
      <trkpt lat="47.10224" lon="-1.19605">
        <ele>71</ele>
        <time>2023-11-12T18:42:11Z</time>
      </trkpt>
      <trkpt lat="47.10189" lon="-1.19545">
        <ele>70</ele>
        <time>2023-11-12T18:43:23Z</time>
      </trkpt>
      <trkpt lat="47.10154" lon="-1.1948">
        <ele>69</ele>
        <time>2023-11-12T18:44:38Z</time>
      </trkpt>
      <trkpt lat="47.10116" lon="-1.19426">
        <ele>68</ele>
        <time>2023-11-12T18:45:49Z</time>
      </trkpt>
      <trkpt lat="47.10068" lon="-1.19349">
        <ele>64</ele>
        <time>2023-11-12T18:47:24Z</time>
      </trkpt>
      <trkpt lat="47.10013" lon="-1.19231">
        <ele>63</ele>
        <time>2023-11-12T18:49:34Z</time>
      </trkpt>
      <trkpt lat="47.09878" lon="-1.19306">
        <ele>56</ele>
        <time>2023-11-12T18:52:46Z</time>
      </trkpt>
      <trkpt lat="47.09768" lon="-1.19293">
        <ele>48</ele>
        <time>2023-11-12T18:55:13Z</time>
      </trkpt>
      <trkpt lat="47.09675" lon="-1.19351">
        <ele>38</ele>
        <time>2023-11-12T18:57:28Z</time>
      </trkpt>
      <trkpt lat="47.09602" lon="-1.19356">
        <ele>32</ele>
        <time>2023-11-12T18:59:06Z</time>
      </trkpt>
      <trkpt lat="47.09587" lon="-1.19009">
        <ele>31</ele>
        <time>2023-11-12T19:04:22Z</time>
      </trkpt>
      <trkpt lat="47.09628" lon="-1.18811">
        <ele>40</ele>
        <time>2023-11-12T19:07:30Z</time>
      </trkpt>
      <trkpt lat="47.09629" lon="-1.18705">
        <ele>42</ele>
        <time>2023-11-12T19:09:06Z</time>
      </trkpt>
      <trkpt lat="47.0968" lon="-1.1871">
        <ele>50</ele>
        <time>2023-11-12T19:10:14Z</time>
      </trkpt>
      <trkpt lat="47.09705" lon="-1.18695">
        <ele>53</ele>
        <time>2023-11-12T19:10:50Z</time>
      </trkpt>
      <trkpt lat="47.09716" lon="-1.18654">
        <ele>54</ele>
        <time>2023-11-12T19:11:30Z</time>
      </trkpt>
      <trkpt lat="47.09752" lon="-1.1865">
        <ele>58</ele>
        <time>2023-11-12T19:12:18Z</time>
      </trkpt>
    </trkseg>
  </trk>
</gpx>